| time (UTC) | temp F | wind direction | speed MPH | gust MPH | rain 1hr in | rain 24hr in | rain mn in | humidity % | barometer mb |
| 20260505151514 | 85 | 215 | 4.0 | 0.0 | 0.00 | 0.00 | 0.00 | 73 | 1014.2 |
| 20260505124550 | 77 | 199 | 2.0 | 0.0 | 0.00 | 0.00 | 0.00 | 88 | 1013.7 |
| 20260505123047 | 75 | 117 | 2.0 | 0.0 | 0.00 | 0.00 | 0.00 | 91 | 1013.6 |
| 20260505121543 | 74 | 115 | 1.0 | 0.0 | 0.00 | 0.00 | 0.00 | 93 | 1013.4 |
| 20260505120041 | 73 | 97 | 0.0 | 0.0 | 0.00 | 0.00 | 0.00 | 94 | 1013.4 |
| 20260505114541 | 72 | 88 | 0.0 | 0.0 | 0.00 | 0.00 | 0.00 | 94 | 1013.3 |
| 20260505113048 | 71 | 88 | 1.0 | 0.0 | 0.00 | 0.00 | 0.00 | 94 | 1013.1 |
| 20260505111539 | 71 | 69 | 1.0 | 0.0 | 0.00 | 0.00 | 0.00 | 94 | 1013.2 |
| 20260505101557 | 72 | 64 | 1.0 | 0.0 | 0.00 | 0.00 | 0.00 | 93 | 1012.5 |
| 20260505100056 | 71 | 64 | 1.0 | 0.0 | 0.00 | 0.00 | 0.00 | 93 | 1012.4 |
| 20260505094536 | 71 | 83 | 0.0 | 0.0 | 0.00 | 0.00 | 0.00 | 93 | 1012.2 |
| 20260505093035 | 71 | 97 | 0.0 | 0.0 | 0.00 | 0.00 | 0.00 | 93 | 1012.1 |
| 20260505091534 | 71 | 98 | 0.0 | 0.0 | 0.00 | 0.00 | 0.00 | 93 | 1012.1 |
| 20260505090034 | 71 | 108 | 0.0 | 0.0 | 0.00 | 0.00 | 0.00 | 93 | 1011.9 |
| 20260505084533 | 72 | 142 | 1.0 | 0.0 | 0.00 | 0.00 | 0.00 | 93 | 1012.0 |
| 20260505083032 | 72 | 138 | 0.0 | 0.0 | 0.00 | 0.00 | 0.00 | 93 | 1011.8 |
| 20260505081530 | 72 | 184 | 0.0 | 0.0 | 0.00 | 0.00 | 0.00 | 93 | 1012.0 |
| 20260505080030 | 72 | 180 | 0.0 | 0.0 | 0.00 | 0.00 | 0.00 | 92 | 1012.1 |
| 20260505074528 | 72 | 150 | 1.0 | 0.0 | 0.00 | 0.00 | 0.00 | 92 | 1012.4 |
| 20260505073036 | 72 | 126 | 1.0 | 0.0 | 0.00 | 0.00 | 0.00 | 92 | 1012.5 |
| 20260505071527 | 72 | 136 | 2.0 | 0.0 | 0.00 | 0.00 | 0.00 | 92 | 1012.3 |
| 20260505070027 | 72 | 128 | 2.0 | 0.0 | 0.00 | 0.00 | 0.00 | 93 | 1012.3 |
| 20260505064524 | 72 | 113 | 1.0 | 0.0 | 0.00 | 0.00 | 0.00 | 92 | 1012.4 |
| 20260505063022 | 72 | 124 | 1.0 | 0.0 | 0.00 | 0.00 | 0.00 | 92 | 1012.8 |
| 20260505061525 | 72 | 115 | 1.0 | 0.0 | 0.00 | 0.00 | 0.00 | 92 | 1013.1 |
| 20260505060020 | 72 | 108 | 1.0 | 0.0 | 0.00 | 0.00 | 0.00 | 92 | 1013.1 |
| 20260505054520 | 72 | 153 | 0.0 | 0.0 | 0.00 | 0.00 | 0.00 | 92 | 1013.0 |
| 20260505053030 | 72 | 146 | 0.0 | 0.0 | 0.00 | 0.00 | 0.00 | 92 | 1013.5 |
| 20260505051533 | 73 | 192 | 1.0 | 0.0 | 0.00 | 0.00 | 0.00 | 92 | 1013.6 |
| 20260505041513 | 73 | 135 | 1.0 | 0.0 | 0.00 | 0.00 | 0.00 | 92 | 1013.9 |
| 20260505040010 | 73 | 140 | 1.0 | 0.0 | 0.00 | 0.00 | 0.00 | 92 | 1013.9 |
| 20260505034507 | 73 | 126 | 1.0 | 0.0 | 0.00 | 0.00 | 1.01 | 91 | 1014.1 |
| 20260505033007 | 73 | 184 | 1.0 | 0.0 | 0.00 | 0.00 | 1.01 | 91 | 1014.0 |
| 20260505031508 | 73 | 159 | 1.0 | 0.0 | 0.00 | 0.00 | 1.01 | 92 | 1013.7 |
| 20260505030008 | 73 | 206 | 1.0 | 0.0 | 0.00 | 0.00 | 1.01 | 91 | 1013.7 |
| 20260505024506 | 72 | 196 | 0.0 | 0.0 | 0.00 | 0.00 | 1.01 | 91 | 1013.7 |
| 20260505023011 | 73 | 186 | 1.0 | 0.0 | 0.00 | 0.00 | 1.01 | 91 | 1013.8 |
| 20260505021504 | 72 | 167 | 2.0 | 0.0 | 0.00 | 0.00 | 1.01 | 91 | 1013.7 |
| 20260505020004 | 72 | 175 | 2.0 | 0.0 | 0.00 | 0.00 | 1.01 | 91 | 1014.0 |
| 20260505014504 | 73 | 197 | 2.0 | 0.0 | 0.00 | 0.00 | 1.01 | 91 | 1013.6 |
| 20260505013004 | 73 | 198 | 1.0 | 0.0 | 0.00 | 0.00 | 1.01 | 91 | 1013.6 |
| 20260505011503 | 73 | 196 | 2.0 | 0.0 | 0.00 | 0.00 | 1.01 | 92 | 1013.6 |
| 20260505010005 | 73 | 204 | 4.0 | 0.0 | 0.00 | 0.00 | 1.01 | 91 | 1013.5 |
| 20260505004502 | 73 | 177 | 3.0 | 0.0 | 0.00 | 0.00 | 1.01 | 91 | 1013.4 |
| 20260505003007 | 73 | 194 | 3.0 | 0.0 | 0.00 | 0.00 | 1.01 | 92 | 1013.4 |
| 20260505001501 | 73 | 157 | 4.0 | 0.0 | 0.00 | 0.00 | 1.01 | 91 | 1013.2 |
| 20260505000100 | 74 | 241 | 4.0 | 0.0 | 0.00 | 0.00 | 1.01 | 91 | 1013.1 |
| 20260504234601 | 74 | 179 | 4.0 | 0.0 | 0.00 | 0.00 | 1.01 | 91 | 1013.1 |
| 20260504233059 | 74 | 175 | 4.0 | 0.0 | 0.00 | 0.00 | 0.98 | 90 | 1013.1 |
| 20260504231600 | 75 | 201 | 5.0 | 0.0 | 0.00 | 0.00 | 0.97 | 87 | 1012.8 |
| 20260504230058 | 74 | 178 | 4.0 | 0.0 | 0.00 | 0.00 | 0.97 | 89 | 1012.7 |
| 20260504224558 | 74 | 217 | 3.0 | 0.0 | 0.00 | 0.00 | 0.97 | 91 | 1012.9 |
| 20260504223102 | 74 | 136 | 3.0 | 0.0 | 0.00 | 0.00 | 0.97 | 93 | 1012.6 |
| 20260504221606 | 73 | 209 | 3.0 | 0.0 | 0.00 | 0.00 | 0.97 | 92 | 1012.8 |
| 20260504220056 | 74 | 169 | 3.0 | 0.0 | 0.00 | 0.00 | 0.94 | 92 | 1012.6 |
| 20260504214604 | 75 | 198 | 6.0 | 0.0 | 0.00 | 0.00 | 0.91 | 90 | 1012.7 |
| 20260504213111 | 76 | 202 | 3.0 | 0.0 | 0.00 | 0.00 | 0.79 | 89 | 1012.8 |
| 20260504211555 | 76 | 181 | 4.0 | 0.0 | 0.00 | 0.00 | 0.79 | 88 | 1012.9 |
| 20260504210054 | 76 | 175 | 4.0 | 0.0 | 0.00 | 0.00 | 0.79 | 88 | 1013.0 |
| 20260504204559 | 76 | 212 | 4.0 | 0.0 | 0.00 | 0.00 | 0.79 | 90 | 1013.0 |
| 20260504203054 | 75 | 174 | 6.0 | 0.0 | 0.00 | 0.00 | 0.79 | 88 | 1013.0 |
| 20260504201553 | 76 | 182 | 7.0 | 0.0 | 0.00 | 0.00 | 0.79 | 87 | 1013.3 |
| 20260504200052 | 77 | 182 | 8.0 | 0.0 | 0.00 | 0.00 | 0.79 | 87 | 1013.3 |
| 20260504194556 | 79 | 205 | 7.0 | 0.0 | 0.00 | 0.00 | 0.79 | 82 | 1013.4 |
| 20260504193055 | 81 | 200 | 4.0 | 0.0 | 0.00 | 0.00 | 0.79 | 76 | 1013.4 |
| 20260504191550 | 81 | 182 | 6.0 | 0.0 | 0.00 | 0.00 | 0.79 | 74 | 1013.5 |
| 20260504190048 | 80 | 206 | 6.0 | 0.0 | 0.00 | 0.00 | 0.79 | 75 | 1013.6 |
| 20260504184547 | 80 | 186 | 5.0 | 0.0 | 0.00 | 0.00 | 0.79 | 77 | 1014.1 |
| 20260504183047 | 77 | 212 | 5.0 | 0.0 | 0.00 | 0.00 | 0.79 | 87 | 1014.1 |
| 20260504181548 | 74 | 157 | 3.0 | 0.0 | 0.00 | 0.00 | 0.79 | 93 | 1014.3 |
| 20260504180050 | 73 | 225 | 4.0 | 0.0 | 0.00 | 0.00 | 0.79 | 94 | 1014.4 |
| 20260504174546 | 73 | 207 | 3.0 | 0.0 | 0.00 | 0.00 | 0.79 | 93 | 1014.6 |
| 20260504173044 | 72 | 169 | 3.0 | 0.0 | 0.00 | 0.00 | 0.78 | 92 | 1014.7 |
| 20260504171544 | 73 | 163 | 3.0 | 0.0 | 0.00 | 0.00 | 0.56 | 91 | 1014.8 |